createdAt,value
2019-05-14T00:02:12.331Z,8.83
2019-05-14T00:04:42.404Z,9.57
2019-05-14T00:07:11.559Z,7.50
2019-05-14T00:09:41.333Z,9.17
2019-05-14T00:12:11.384Z,9.40
2019-05-14T00:14:43.850Z,10.40
2019-05-14T00:17:11.404Z,10.50
2019-05-14T00:19:41.579Z,9.60
2019-05-14T00:22:11.563Z,9.07
2019-05-14T00:24:41.697Z,8.83
2019-05-14T00:27:11.440Z,8.87
2019-05-14T00:29:41.685Z,6.90
2019-05-14T00:32:11.208Z,8.10
2019-05-14T00:34:42.171Z,5.60
2019-05-14T00:37:11.449Z,6.30
2019-05-14T00:39:41.639Z,6.20
2019-05-14T00:42:12.485Z,3.60
2019-05-14T00:44:53.675Z,3.60
2019-05-14T00:47:11.721Z,3.80
2019-05-14T00:49:42.221Z,3.73
2019-05-14T00:52:11.697Z,3.27
2019-05-14T00:54:41.601Z,3.10
2019-05-14T00:57:11.831Z,3.60
2019-05-14T00:59:41.692Z,3.33
2019-05-14T01:02:11.408Z,3.30
2019-05-14T01:04:42.853Z,3.90
2019-05-14T01:07:11.882Z,3.43
2019-05-14T01:09:42.093Z,3.70
2019-05-14T01:12:12.181Z,3.50
2019-05-14T01:14:42.378Z,3.97
2019-05-14T01:17:12.435Z,4.70
2019-05-14T01:19:42.545Z,5.93
2019-05-14T01:22:12.489Z,9.50
2019-05-14T01:24:41.941Z,6.17
2019-05-14T01:27:12.442Z,6.33
2019-05-14T01:29:42.488Z,7.10
2019-05-14T01:32:11.626Z,7.20
2019-05-14T01:34:41.991Z,9.47
2019-05-14T01:37:11.942Z,11.57
2019-05-14T01:39:41.875Z,10.87
2019-05-14T01:42:12.523Z,14.67
2019-05-14T01:44:41.241Z,13.70
2019-05-14T01:47:12.406Z,11.13
2019-05-14T01:49:42.494Z,19.43
2019-05-14T01:52:11.234Z,15.90
2019-05-14T01:54:42.426Z,14.23
2019-05-14T01:57:11.593Z,15.23
2019-05-14T01:59:42.595Z,16.50
2019-05-14T02:02:11.676Z,12.47
2019-05-14T02:04:42.451Z,17.63
2019-05-14T02:07:11.508Z,14.37
2019-05-14T02:09:42.044Z,13.83
2019-05-14T02:12:11.676Z,13.53
2019-05-14T02:14:42.537Z,12.73
2019-05-14T02:17:12.411Z,13.87
2019-05-14T02:19:42.577Z,12.40
2019-05-14T02:22:11.433Z,11.17
2019-05-14T02:24:41.728Z,13.80
2019-05-14T02:27:12.275Z,14.20
2019-05-14T02:29:41.601Z,13.90
2019-05-14T02:32:10.742Z,14.20
2019-05-14T02:34:40.089Z,8.23
2019-05-14T02:37:09.390Z,21.73
2019-05-14T02:39:41.119Z,19.73
2019-05-14T02:42:09.409Z,15.10
2019-05-14T02:44:40.661Z,14.17
2019-05-14T02:47:09.896Z,13.60
2019-05-14T02:49:39.709Z,15.27
2019-05-14T02:52:09.998Z,15.67
2019-05-14T02:54:40.383Z,27.73
2019-05-14T02:57:10.427Z,17.00
2019-05-14T02:59:39.455Z,16.50
2019-05-14T03:02:09.957Z,17.77
2019-05-14T03:04:39.564Z,15.93
2019-05-14T03:07:10.959Z,23.53
2019-05-14T03:09:40.284Z,24.87
2019-05-14T03:12:10.077Z,18.33
2019-05-14T03:14:39.816Z,14.90
2019-05-14T03:17:10.435Z,16.27
2019-05-14T03:19:40.908Z,15.33
2019-05-14T03:22:10.383Z,19.63
2019-05-14T03:24:39.874Z,17.97
2019-05-14T03:27:09.737Z,14.87
2019-05-14T03:29:39.796Z,14.67
2019-05-14T03:32:13.182Z,14.03
2019-05-14T03:34:43.303Z,17.40
2019-05-14T03:37:13.071Z,20.77
2019-05-14T03:39:39.598Z,25.67
2019-05-14T03:42:09.409Z,26.37
2019-05-14T03:44:39.860Z,19.60
2019-05-14T03:47:10.192Z,18.10
2019-05-14T03:49:39.810Z,16.60
2019-05-14T03:52:09.705Z,18.07
2019-05-14T03:54:40.637Z,17.47
2019-05-14T03:57:09.642Z,19.50
2019-05-14T03:59:40.386Z,24.50
2019-05-14T04:02:09.815Z,17.57
2019-05-14T04:04:39.366Z,13.13
2019-05-14T04:07:09.664Z,12.03
2019-05-14T04:09:40.010Z,13.50
2019-05-14T04:12:09.992Z,12.07
2019-05-14T04:14:39.847Z,12.40
2019-05-14T04:17:14.410Z,13.07
2019-05-14T04:19:39.470Z,21.30
2019-05-14T04:22:10.102Z,29.70
2019-05-14T04:24:41.548Z,44.87
2019-05-14T04:27:12.972Z,34.00
2019-05-14T04:29:40.684Z,22.90
2019-05-14T04:32:11.831Z,26.30
2019-05-14T04:34:40.732Z,28.37
2019-05-14T04:37:12.709Z,21.23
2019-05-14T04:39:41.313Z,22.60
2019-05-14T04:42:11.390Z,22.00
2019-05-14T04:44:43.062Z,26.90
2019-05-14T04:47:27.931Z,31.50
2019-05-14T04:49:41.762Z,38.17
2019-05-14T04:52:10.493Z,39.80
2019-05-14T04:54:39.502Z,36.80
2019-05-14T04:57:10.276Z,34.47
2019-05-14T04:59:39.910Z,29.70
2019-05-14T05:02:09.738Z,26.47
2019-05-14T05:04:41.116Z,27.40
2019-05-14T05:07:10.008Z,36.50
2019-05-14T05:09:39.744Z,22.27
2019-05-14T05:12:09.317Z,21.07
2019-05-14T05:14:38.904Z,11.10
2019-05-14T05:17:09.179Z,10.17
2019-05-14T05:19:39.397Z,9.50
2019-05-14T05:22:08.384Z,32.93
2019-05-14T05:24:38.075Z,17.17
2019-05-14T05:27:09.297Z,23.33
2019-05-14T05:29:39.203Z,32.40
2019-05-14T05:32:08.633Z,33.73
2019-05-14T05:34:38.934Z,31.87
2019-05-14T05:37:08.611Z,31.57
2019-05-14T05:39:38.582Z,31.03
2019-05-14T05:42:08.986Z,31.33
2019-05-14T05:44:39.377Z,37.37
2019-05-14T05:47:09.167Z,33.77
2019-05-14T05:49:38.261Z,39.53
2019-05-14T05:52:08.590Z,29.03
2019-05-14T05:54:38.456Z,28.67
2019-05-14T05:57:09.329Z,28.40
2019-05-14T05:59:39.305Z,24.20
2019-05-14T06:02:09.376Z,24.20
2019-05-14T06:04:39.302Z,24.43
2019-05-14T06:07:08.883Z,19.93
2019-05-14T06:09:38.117Z,23.67
2019-05-14T06:12:08.637Z,25.67
2019-05-14T06:14:38.217Z,30.07
2019-05-14T06:17:08.509Z,39.57
2019-05-14T06:19:38.142Z,39.20
2019-05-14T06:22:10.104Z,49.27
2019-05-14T06:24:38.944Z,50.43
2019-05-14T06:27:09.461Z,44.57
2019-05-14T06:29:39.306Z,41.37
2019-05-14T06:32:09.258Z,68.77
2019-05-14T06:34:38.451Z,76.43
2019-05-14T06:37:08.386Z,56.33
2019-05-14T06:39:39.127Z,60.33
2019-05-14T06:42:08.842Z,55.63
2019-05-14T06:44:38.685Z,35.17
2019-05-14T06:47:09.359Z,28.73
2019-05-14T06:49:38.528Z,38.30
2019-05-14T06:52:08.722Z,50.70
2019-05-14T06:54:38.704Z,45.70
2019-05-14T06:57:09.101Z,46.57
2019-05-14T06:59:38.273Z,45.00
2019-05-14T07:02:08.712Z,48.40
2019-05-14T07:04:39.262Z,42.30
2019-05-14T07:07:08.987Z,39.47
2019-05-14T07:09:38.439Z,37.17
2019-05-14T07:12:09.141Z,35.17
2019-05-14T07:14:38.886Z,50.93
2019-05-14T07:17:09.074Z,55.90
2019-05-14T07:19:38.563Z,65.40
2019-05-14T07:22:08.932Z,57.23
2019-05-14T07:24:39.933Z,60.97
2019-05-14T07:27:09.418Z,57.20
2019-05-14T07:29:38.715Z,42.27
2019-05-14T07:32:08.973Z,40.17
2019-05-14T07:34:38.911Z,41.40
2019-05-14T07:37:09.257Z,28.70
2019-05-14T07:39:38.649Z,28.57
2019-05-14T07:42:09.782Z,28.80
2019-05-14T07:44:39.105Z,20.43
2019-05-14T07:47:08.319Z,19.90
2019-05-14T07:49:38.573Z,22.00
2019-05-14T07:52:09.984Z,23.73
2019-05-14T07:54:38.963Z,16.83
2019-05-14T07:57:08.733Z,19.47
2019-05-14T07:59:38.238Z,18.40
2019-05-14T08:02:09.137Z,14.60
2019-05-14T08:04:38.125Z,10.77
2019-05-14T08:07:08.985Z,11.13
2019-05-14T08:09:38.976Z,9.83
2019-05-14T08:12:09.288Z,18.77
2019-05-14T08:14:45.905Z,19.23
2019-05-14T08:17:08.669Z,19.93
2019-05-14T08:19:38.631Z,13.53
2019-05-14T08:22:09.508Z,9.13
2019-05-14T08:24:38.612Z,9.57
2019-05-14T08:27:08.524Z,12.03
2019-05-14T08:29:39.976Z,11.03
2019-05-14T08:32:08.816Z,13.13
2019-05-14T08:34:38.983Z,9.27
2019-05-14T08:37:08.258Z,9.37
2019-05-14T08:39:39.179Z,10.07
2019-05-14T08:42:08.587Z,10.50
2019-05-14T08:44:39.000Z,10.87
2019-05-14T08:47:09.334Z,9.50
2019-05-14T08:49:45.476Z,8.23
2019-05-14T08:52:08.774Z,8.37
2019-05-14T08:54:39.074Z,9.23
2019-05-14T08:57:09.887Z,10.20
2019-05-14T08:59:39.537Z,10.07
2019-05-14T09:02:10.768Z,9.07
2019-05-14T09:04:42.987Z,6.03
2019-05-14T09:07:09.501Z,6.30
2019-05-14T09:09:38.344Z,6.30
2019-05-14T09:12:12.358Z,9.30
2019-05-14T09:14:38.881Z,12.00
2019-05-14T09:17:09.896Z,10.03
2019-05-14T09:19:40.833Z,8.33
2019-05-14T09:22:09.619Z,8.40
2019-05-14T09:24:38.728Z,9.50
2019-05-14T09:27:08.470Z,10.37
2019-05-14T09:29:39.206Z,9.80
2019-05-14T09:32:09.379Z,8.60
2019-05-14T09:34:39.127Z,7.30
2019-05-14T09:37:08.642Z,7.17
2019-05-14T09:39:38.627Z,8.00
2019-05-14T09:42:08.215Z,9.50
2019-05-14T09:44:38.749Z,9.90
2019-05-14T09:47:08.558Z,11.63
2019-05-14T09:49:38.833Z,10.67
2019-05-14T09:52:09.087Z,9.73
2019-05-14T09:54:41.432Z,10.40
2019-05-14T09:57:08.344Z,12.97
2019-05-14T09:59:38.465Z,14.53
2019-05-14T10:02:09.127Z,13.90
2019-05-14T10:04:39.170Z,13.80
2019-05-14T10:07:08.703Z,15.47
2019-05-14T10:09:38.985Z,22.20
2019-05-14T10:12:08.966Z,25.13
2019-05-14T10:14:39.374Z,23.77
2019-05-14T10:17:07.709Z,27.23
2019-05-14T10:19:38.895Z,25.90
2019-05-14T10:22:08.290Z,25.87
2019-05-14T10:24:38.514Z,26.80
2019-05-14T10:27:08.938Z,24.07
2019-05-14T10:29:36.042Z,25.03
2019-05-14T10:32:04.383Z,27.37
2019-05-14T10:34:33.001Z,22.10
2019-05-14T10:37:01.419Z,15.07
2019-05-14T10:39:30.771Z,11.33
2019-05-14T10:42:01.477Z,11.77
2019-05-14T10:44:30.098Z,17.57
2019-05-14T10:46:58.654Z,14.90
2019-05-14T10:49:29.984Z,21.23
2019-05-14T10:51:58.599Z,21.93
2019-05-14T10:54:29.238Z,20.27
2019-05-14T10:56:59.274Z,19.73
2019-05-14T10:59:29.412Z,22.10
2019-05-14T11:01:58.140Z,18.67
2019-05-14T11:04:28.594Z,23.43
2019-05-14T11:06:56.888Z,21.77
2019-05-14T11:09:25.128Z,20.80
2019-05-14T11:11:53.643Z,12.60
2019-05-14T11:14:22.122Z,13.40
2019-05-14T11:16:50.494Z,20.93
2019-05-14T11:19:19.184Z,21.33
2019-05-14T11:21:48.379Z,18.73
2019-05-14T11:24:18.864Z,12.83
2019-05-14T11:26:48.795Z,12.37
2019-05-14T11:29:18.606Z,10.57
2019-05-14T11:31:48.465Z,10.87
2019-05-14T11:34:19.288Z,16.43
2019-05-14T11:36:49.464Z,14.63
2019-05-14T11:39:18.062Z,10.27
2019-05-14T11:41:49.245Z,18.80
2019-05-14T11:44:17.761Z,20.43
2019-05-14T11:46:52.491Z,16.17
2019-05-14T11:49:19.159Z,13.17
2019-05-14T11:52:01.082Z,11.60
2019-05-14T11:54:18.734Z,8.57
2019-05-14T11:56:48.300Z,12.80
2019-05-14T11:59:18.922Z,7.63
2019-05-14T12:01:49.386Z,7.37
2019-05-14T12:04:18.828Z,7.13
2019-05-14T12:06:48.193Z,8.83
2019-05-14T12:09:18.942Z,13.33
2019-05-14T12:11:47.398Z,14.10
2019-05-14T12:14:15.786Z,13.57
2019-05-14T12:16:44.174Z,16.90
2019-05-14T12:19:12.444Z,14.97
2019-05-14T12:21:57.397Z,12.37
2019-05-14T12:24:13.693Z,10.60
2019-05-14T12:26:41.298Z,10.17
2019-05-14T12:29:10.033Z,13.07
2019-05-14T12:31:39.019Z,16.23
2019-05-14T12:34:08.567Z,11.47
2019-05-14T12:36:39.037Z,10.43
2019-05-14T12:39:09.592Z,12.80
2019-05-14T12:41:38.279Z,16.37
2019-05-14T12:44:19.386Z,16.13
2019-05-14T12:46:48.996Z,16.10
2019-05-14T12:49:22.116Z,5.07
2019-05-14T12:51:50.574Z,7.70
2019-05-14T12:54:19.879Z,6.07
2019-05-14T12:56:49.807Z,5.80
2019-05-14T12:59:18.866Z,7.37
2019-05-14T13:01:49.191Z,11.87
2019-05-14T13:04:23.726Z,12.80
2019-05-14T13:06:52.264Z,13.67
2019-05-14T13:09:21.682Z,11.13
2019-05-14T13:11:50.615Z,10.93
2019-05-14T13:14:19.403Z,11.80
2019-05-14T13:16:50.774Z,9.93
2019-05-14T13:19:19.616Z,18.30
2019-05-14T13:21:48.907Z,10.00
2019-05-14T13:24:18.169Z,23.43
2019-05-14T13:26:49.485Z,25.30
2019-05-14T13:29:20.556Z,12.80
2019-05-14T13:31:49.811Z,11.10
2019-05-14T13:34:19.521Z,16.53
2019-05-14T13:36:48.906Z,19.40
2019-05-14T13:39:19.470Z,13.73
2019-05-14T13:41:48.732Z,17.37
2019-05-14T13:44:24.840Z,16.40
2019-05-14T13:46:51.579Z,12.40
2019-05-14T13:49:20.375Z,13.10
2019-05-14T13:51:49.132Z,15.23
2019-05-14T13:54:24.030Z,15.13
2019-05-14T13:56:55.927Z,21.07
2019-05-14T13:59:24.134Z,12.43
2019-05-14T14:01:54.969Z,15.93
2019-05-14T14:04:23.268Z,18.03
2019-05-14T14:06:51.784Z,21.30
2019-05-14T14:09:20.457Z,64.43
2019-05-14T14:11:51.959Z,52.63
2019-05-14T14:14:28.939Z,48.70
2019-05-14T14:16:58.247Z,33.93
2019-05-14T14:19:28.192Z,42.33
2019-05-14T14:21:59.039Z,26.20
2019-05-14T14:24:38.916Z,41.13
2019-05-14T14:27:03.683Z,43.33
2019-05-14T14:29:33.178Z,33.83
2019-05-14T14:32:01.833Z,27.30
2019-05-14T14:34:30.358Z,29.50
2019-05-14T14:37:01.291Z,33.67
2019-05-14T14:39:34.442Z,35.10
2019-05-14T14:42:02.864Z,40.67
2019-05-14T14:44:39.330Z,16.30
2019-05-14T14:47:08.045Z,16.97
2019-05-14T14:49:43.021Z,67.23
2019-05-14T14:52:12.282Z,47.00
2019-05-14T14:54:41.085Z,45.20
2019-05-14T14:57:09.475Z,31.40
2019-05-14T14:59:42.866Z,17.83
2019-05-14T15:02:11.156Z,22.73
2019-05-14T15:04:40.084Z,21.67
2019-05-14T15:07:09.686Z,17.00
2019-05-14T15:09:41.132Z,119.70
2019-05-14T15:12:09.569Z,45.33
2019-05-14T15:14:39.513Z,25.80
2019-05-14T15:17:09.706Z,83.80
2019-05-14T15:19:39.493Z,31.43
2019-05-14T15:22:08.784Z,21.67
2019-05-14T15:24:39.358Z,16.83
2019-05-14T15:27:14.832Z,30.93
2019-05-14T15:29:38.717Z,33.70
2019-05-14T15:32:22.558Z,59.17
2019-05-14T15:34:38.062Z,18.17
2019-05-14T15:37:09.012Z,39.23
2019-05-14T15:39:38.910Z,25.53
2019-05-14T15:42:12.819Z,40.17
2019-05-14T15:44:48.775Z,24.80
2019-05-14T15:47:11.403Z,31.40
2019-05-14T15:49:38.928Z,31.10
2019-05-14T15:52:08.543Z,34.77
2019-05-14T15:54:46.322Z,50.80
2019-05-14T15:57:09.107Z,68.17
2019-05-14T15:59:39.197Z,101.90
2019-05-14T16:02:09.335Z,78.67
2019-05-14T16:04:38.838Z,64.73
2019-05-14T16:07:09.527Z,90.30
2019-05-14T16:09:39.735Z,61.17
2019-05-14T16:12:09.608Z,43.13
2019-05-14T16:14:38.822Z,32.87
2019-05-14T16:17:11.272Z,26.87
2019-05-14T16:19:39.229Z,33.97
2019-05-14T16:22:09.825Z,31.77
2019-05-14T16:24:53.073Z,45.33
2019-05-14T16:27:08.550Z,40.17
2019-05-14T16:29:44.878Z,38.90
2019-05-14T16:32:08.487Z,27.33
2019-05-14T16:34:40.945Z,28.40
2019-05-14T16:37:11.040Z,29.37
2019-05-14T16:39:39.046Z,30.50
2019-05-14T16:42:07.621Z,28.10
2019-05-14T16:44:36.026Z,39.47
2019-05-14T16:47:05.194Z,44.80
2019-05-14T16:49:34.119Z,41.70
2019-05-14T16:52:02.677Z,41.67
2019-05-14T16:54:32.601Z,58.90
2019-05-14T16:57:01.163Z,24.03
2019-05-14T16:59:30.450Z,69.07
2019-05-14T17:01:58.918Z,38.77
2019-05-14T17:04:29.306Z,49.80
2019-05-14T17:06:58.873Z,36.63
2019-05-14T17:09:28.340Z,40.67
2019-05-14T17:11:59.025Z,109.23
2019-05-14T17:14:29.325Z,57.97
2019-05-14T17:16:59.440Z,87.80
2019-05-14T17:19:29.658Z,92.40
2019-05-14T17:21:59.392Z,101.73
2019-05-14T17:24:29.188Z,100.33
2019-05-14T17:26:58.323Z,67.97
2019-05-14T17:29:28.628Z,84.17
2019-05-14T17:32:02.871Z,46.17
2019-05-14T17:34:32.093Z,95.60
2019-05-14T17:37:00.760Z,167.60
2019-05-14T17:39:29.900Z,80.73
2019-05-14T17:41:58.937Z,84.70
2019-05-14T17:44:28.194Z,73.83
2019-05-14T17:46:59.868Z,96.80
2019-05-14T17:49:29.148Z,95.43
2019-05-14T17:51:58.110Z,88.77
2019-05-14T17:54:28.441Z,74.93
2019-05-14T17:56:59.214Z,51.77
2019-05-14T17:59:29.787Z,64.30
2019-05-14T18:01:58.698Z,43.13
2019-05-14T18:04:28.332Z,46.93
2019-05-14T18:06:58.986Z,42.60
2019-05-14T18:09:29.077Z,40.10
2019-05-14T18:11:58.659Z,53.03
2019-05-14T18:14:28.389Z,35.50
2019-05-14T18:16:58.486Z,47.53
2019-05-14T18:19:28.960Z,39.37
2019-05-14T18:21:59.292Z,33.90
2019-05-14T18:24:28.701Z,25.97
2019-05-14T18:26:57.643Z,17.00
2019-05-14T18:29:26.225Z,23.53
2019-05-14T18:32:00.985Z,32.00
2019-05-14T18:34:28.408Z,33.13
2019-05-14T18:37:00.169Z,32.93
2019-05-14T18:39:28.270Z,35.83
2019-05-14T18:42:00.505Z,37.27
2019-05-14T18:44:28.478Z,31.07
2019-05-14T18:46:59.323Z,19.50
2019-05-14T18:49:28.772Z,18.93
2019-05-14T18:51:59.289Z,18.60
2019-05-14T18:54:29.309Z,20.77
2019-05-14T18:56:59.607Z,21.87
2019-05-14T18:59:30.818Z,26.30
2019-05-14T19:02:00.354Z,26.50
2019-05-14T19:04:29.284Z,31.87
2019-05-14T19:06:59.053Z,37.40
2019-05-14T19:09:29.247Z,42.13
2019-05-14T19:11:58.792Z,41.87
2019-05-14T19:14:29.231Z,39.93
2019-05-14T19:16:58.564Z,39.30
2019-05-14T19:19:29.363Z,40.80
2019-05-14T19:22:03.054Z,41.33
2019-05-14T19:24:32.716Z,51.73
2019-05-14T19:27:01.144Z,64.80
2019-05-14T19:29:29.876Z,65.70
2019-05-14T19:31:58.625Z,53.73
2019-05-14T19:34:28.951Z,71.83
2019-05-14T19:36:57.874Z,57.90
2019-05-14T19:39:28.181Z,47.80
2019-05-14T19:41:56.865Z,42.93
2019-05-14T19:44:25.582Z,38.70
2019-05-14T19:46:59.086Z,36.80
2019-05-14T19:49:28.808Z,56.87
2019-05-14T19:51:59.214Z,45.97
2019-05-14T19:54:29.203Z,52.77
2019-05-14T19:57:00.829Z,71.53
2019-05-14T19:59:28.730Z,74.03
2019-05-14T20:02:03.898Z,87.73
2019-05-14T20:04:32.096Z,78.03
2019-05-14T20:07:01.148Z,71.63
2019-05-14T20:09:29.805Z,60.60
2019-05-14T20:11:58.281Z,53.43
2019-05-14T20:14:28.691Z,50.10
2019-05-14T20:16:58.326Z,41.13
2019-05-14T20:19:28.638Z,46.40
2019-05-14T20:21:58.789Z,46.23
2019-05-14T20:24:28.314Z,46.57
2019-05-14T20:27:05.932Z,41.17
2019-05-14T20:29:28.745Z,42.27
2019-05-14T20:32:01.678Z,35.33
2019-05-14T20:34:29.582Z,32.83
2019-05-14T20:36:58.869Z,39.20
2019-05-14T20:39:33.351Z,36.97
2019-05-14T20:42:03.215Z,36.67
2019-05-14T20:44:32.121Z,30.60
2019-05-14T20:47:00.586Z,32.83
2019-05-14T20:49:29.384Z,40.13
2019-05-14T20:51:59.489Z,38.97
2019-05-14T20:54:28.982Z,40.87
2019-05-14T20:56:58.643Z,35.07
2019-05-14T20:59:28.258Z,35.07
2019-05-14T21:01:58.947Z,38.67
2019-05-14T21:04:28.336Z,39.73
2019-05-14T21:06:58.736Z,34.03
2019-05-14T21:09:28.817Z,39.23
2019-05-14T21:11:57.471Z,35.87
2019-05-14T21:14:26.219Z,35.70
2019-05-14T21:16:54.546Z,38.47
2019-05-14T21:19:23.114Z,24.47
2019-05-14T21:21:51.849Z,32.43
2019-05-14T21:24:21.935Z,34.87
2019-05-14T21:26:50.580Z,32.63
2019-05-14T21:29:19.101Z,34.70
2019-05-14T21:31:48.142Z,33.53
2019-05-14T21:34:17.151Z,34.87
2019-05-14T21:36:48.365Z,36.63
2019-05-14T21:39:18.904Z,30.37
2019-05-14T21:41:49.195Z,30.17
2019-05-14T21:44:18.825Z,35.87
2019-05-14T21:46:48.275Z,36.20
2019-05-14T21:49:18.986Z,37.20
2019-05-14T21:51:48.350Z,37.77
2019-05-14T21:54:18.968Z,17.83
2019-05-14T21:56:49.586Z,20.70
2019-05-14T21:59:18.942Z,19.67
2019-05-14T22:01:48.516Z,16.20
2019-05-14T22:04:18.680Z,12.87
2019-05-14T22:06:49.073Z,12.13
2019-05-14T22:09:17.897Z,12.83
2019-05-14T22:11:48.551Z,13.03
2019-05-14T22:14:18.693Z,12.50
2019-05-14T22:16:48.745Z,10.93
2019-05-14T22:19:19.049Z,13.13
2019-05-14T22:21:49.097Z,7.63
2019-05-14T22:24:18.789Z,7.33
2019-05-14T22:26:47.940Z,7.77
2019-05-14T22:29:17.896Z,6.80
2019-05-14T22:31:46.459Z,7.40
2019-05-14T22:34:14.686Z,6.27
2019-05-14T22:36:43.705Z,6.10
2019-05-14T22:39:12.209Z,13.13
2019-05-14T22:41:40.887Z,7.20
2019-05-14T22:44:09.726Z,7.50
2019-05-14T22:46:40.376Z,12.47
2019-05-14T22:49:09.183Z,12.33
2019-05-14T22:51:38.368Z,12.03
2019-05-14T22:54:08.714Z,11.17
2019-05-14T22:56:39.039Z,11.63
2019-05-14T22:59:07.977Z,7.83
2019-05-14T23:01:38.578Z,7.33
2019-05-14T23:04:08.792Z,7.30
2019-05-14T23:06:38.233Z,6.67
2019-05-14T23:09:09.089Z,7.27
2019-05-14T23:11:38.510Z,4.93
2019-05-14T23:14:07.118Z,5.60
2019-05-14T23:16:39.237Z,5.33
2019-05-14T23:19:07.972Z,5.17
2019-05-14T23:21:39.129Z,5.63
2019-05-14T23:24:08.919Z,5.30
2019-05-14T23:26:37.024Z,6.00
2019-05-14T23:29:05.349Z,5.80
2019-05-14T23:31:34.003Z,6.83
2019-05-14T23:34:02.383Z,7.37
2019-05-14T23:36:30.853Z,7.27
2019-05-14T23:38:59.456Z,5.40
2019-05-14T23:41:28.666Z,4.77
2019-05-14T23:43:57.072Z,4.80
2019-05-14T23:46:25.330Z,4.63
2019-05-14T23:48:53.754Z,4.43
2019-05-14T23:51:22.268Z,4.30
2019-05-14T23:53:50.872Z,8.70
2019-05-14T23:56:19.716Z,5.20
2019-05-14T23:58:57.657Z,9.10
